SBSL/SLZ METAR and TAF weather

Enter ICAO airport designator
Station Type Date Time Source
SBSL METAR 2022/12/04 11:00 UTC NOAA

SBSL 041100Z 07009KT 9999 SCT020 30/23 Q1009


Station Type Date Time Source
SBSL Decoded METAR 2022/12/04 11:00 UTC NOAA

Sao Luiz Aeroporto , Brazil (SBSL) 02-36S 044-14W 53M
Dec 04, 2022 - 06:00 AM EST / 2022.12.04 1100 UTC
Wind: from the ENE (070 degrees) at 10 MPH (9 KT):0
Visibility: greater than 7 mile(s):0
Sky conditions: partly cloudy
Temperature: 86 F (30 C)
Heat index: 93.4 F (34.1 C):1
Dew Point: 73 F (23 C)
Relative Humidity: 66%
Pressure (altimeter): 29.80 in. Hg (1009 hPa)
ob: SBSL 041100Z 07009KT 9999 SCT020 30/23 Q1009
cycle: 11

Station Type Date Time Source
SBSL TAF 2022/12/04 12:59 UTC NOAA

TAF SBSL 040859Z 0412/0512 06008G18KT 9999 FEW020 TX33/0416Z TN26/0509Z
RMK PGX

Example: see airport list